createdAt,value
2018-04-08T07:05:16.692Z,42.20
2018-04-08T07:07:45.160Z,45.50
2018-04-08T07:10:14.758Z,45.50
2018-04-08T07:12:47.928Z,45.80
2018-04-08T07:18:04.214Z,47.20
2018-04-08T07:23:24.621Z,45.70
2018-04-08T07:25:57.993Z,46.60
2018-04-08T07:28:26.262Z,46.40
2018-04-08T07:30:53.784Z,46.40
2018-04-08T07:33:22.198Z,45.50
2018-04-08T07:35:50.328Z,45.80
2018-04-08T07:38:18.647Z,45.40
2018-04-08T07:40:47.445Z,45.30
2018-04-08T07:43:17.193Z,45.40
2018-04-08T07:45:45.489Z,45.50
2018-04-08T07:48:13.029Z,45.50
2018-04-08T07:50:40.535Z,44.70
2018-04-08T07:53:08.037Z,44.50
2018-04-08T07:55:35.523Z,44.80
2018-04-08T07:58:03.026Z,43.50
2018-04-08T08:00:30.520Z,41.20
2018-04-08T08:02:59.023Z,38.50
2018-04-08T08:05:26.587Z,38.50
2018-04-08T08:07:54.016Z,37.70
2018-04-08T08:10:21.459Z,36.60
2018-04-08T08:12:49.659Z,37.30
2018-04-08T08:15:18.057Z,37.30
2018-04-08T08:17:45.486Z,37.10
2018-04-08T08:20:12.950Z,36.40
2018-04-08T08:22:40.389Z,37.00
2018-04-08T08:25:08.597Z,36.30
2018-04-08T08:52:52.949Z,25.10
2018-04-08T08:55:20.529Z,25.10
2018-04-08T08:57:47.982Z,25.50
2018-04-08T09:00:15.525Z,25.20
2018-04-08T09:02:42.969Z,23.10
2018-04-08T09:05:10.407Z,22.50
2018-04-08T09:07:37.840Z,20.90
2018-04-08T09:10:06.062Z,20.30
2018-04-08T09:12:33.513Z,20.30
2018-04-08T09:15:00.943Z,20.60
2018-04-08T09:17:28.393Z,21.50
2018-04-08T09:20:02.405Z,22.40
2018-04-08T09:25:34.374Z,22.50
2018-04-08T09:28:02.587Z,23.40
2018-04-08T09:30:30.018Z,23.30
2018-04-08T09:32:57.458Z,23.60
2018-04-08T09:35:25.663Z,24.40
2018-04-08T09:37:53.131Z,24.30
2018-04-08T09:40:20.616Z,24.40
2018-04-08T09:42:48.937Z,26.60
2018-04-08T09:45:16.382Z,26.00
2018-04-08T09:47:43.807Z,25.70
2018-04-08T09:50:11.238Z,25.80
2018-04-08T09:52:39.109Z,25.00
2018-04-08T09:55:06.527Z,24.50
2018-04-08T09:57:38.434Z,22.90
2018-04-08T10:00:05.865Z,22.90
2018-04-08T10:02:39.923Z,23.00
2018-04-08T10:05:08.141Z,21.80
2018-04-08T10:07:35.590Z,21.70
2018-04-08T10:10:03.027Z,20.70
2018-04-08T10:12:30.449Z,20.30
2018-04-08T10:14:58.654Z,18.40
2018-04-08T10:20:29.222Z,17.50
2018-04-08T10:22:56.736Z,16.60
2018-04-08T10:25:24.941Z,17.50
2018-04-08T10:27:52.435Z,17.50
2018-04-08T10:36:02.347Z,22.30
2018-04-08T10:38:29.781Z,23.70
2018-04-08T10:40:57.226Z,25.50
2018-04-08T10:43:24.719Z,27.40
2018-04-08T10:45:52.935Z,28.60
2018-04-08T10:48:20.386Z,28.60
2018-04-08T10:50:47.859Z,29.60
2018-04-08T10:53:15.298Z,30.30
2018-04-08T10:55:42.734Z,30.80
2018-04-08T10:58:10.190Z,30.30
2018-04-08T11:00:37.665Z,30.40
2018-04-08T11:03:05.113Z,31.80
2018-04-08T11:05:32.547Z,30.90
2018-04-08T11:08:00.770Z,30.40
2018-04-08T11:10:28.221Z,30.40
2018-04-08T11:12:55.683Z,30.40
2018-04-08T11:15:23.118Z,30.70
2018-04-08T11:17:50.546Z,30.10
2018-04-08T11:20:18.750Z,30.10
2018-04-08T11:22:46.179Z,30.10
2018-04-08T11:25:14.398Z,29.70
2018-04-08T11:27:41.832Z,29.70
2018-04-08T11:30:09.266Z,29.80
2018-04-08T11:32:36.721Z,29.50
2018-04-08T11:35:04.172Z,29.60
2018-04-08T11:37:32.373Z,28.80
2018-04-08T11:39:59.813Z,28.80
2018-04-08T11:42:27.249Z,28.90
2018-04-08T11:44:55.461Z,29.50
2018-04-08T11:47:22.890Z,29.50
2018-04-08T11:49:50.370Z,29.90
2018-04-08T11:52:18.179Z,29.50
2018-04-08T11:54:45.634Z,29.60
2018-04-08T11:57:13.052Z,29.60
2018-04-08T11:59:40.493Z,29.70
2018-04-08T12:02:07.960Z,29.80
2018-04-08T12:04:35.383Z,29.30
2018-04-08T12:07:03.582Z,30.50
2018-04-08T12:09:31.045Z,30.50
2018-04-08T12:11:58.476Z,30.20
2018-04-08T12:14:26.662Z,30.10
2018-04-08T12:16:54.111Z,30.10
2018-04-08T12:19:21.554Z,29.60
2018-04-08T12:21:49.745Z,28.80
2018-04-08T12:24:17.206Z,28.80
2018-04-08T12:26:44.760Z,30.00
2018-04-08T12:29:12.209Z,29.90
2018-04-08T12:31:40.677Z,29.80
2018-04-08T12:34:08.862Z,29.30
2018-04-08T12:36:36.299Z,28.80
2018-04-08T12:39:04.519Z,29.20
2018-04-08T12:41:31.946Z,28.70
2018-04-08T12:43:59.388Z,27.80
2018-04-08T12:46:27.585Z,28.20
2018-04-08T12:48:55.034Z,28.10
2018-04-08T12:51:22.486Z,27.50
2018-04-08T12:53:49.921Z,27.00
2018-04-08T12:56:18.114Z,27.60
2018-04-08T12:58:45.569Z,27.50
2018-04-08T13:01:13.451Z,27.20
2018-04-08T13:03:40.889Z,27.80
2018-04-08T13:06:08.361Z,29.50
2018-04-08T13:08:35.787Z,30.00
2018-04-08T13:11:04.007Z,29.50
2018-04-08T13:13:31.465Z,29.50
2018-04-08T13:15:58.933Z,29.50
2018-04-08T13:18:26.378Z,30.50
2018-04-08T13:20:53.822Z,31.20
2018-04-08T13:23:21.267Z,30.90
2018-04-08T13:25:48.723Z,30.20
2018-04-08T13:28:16.171Z,30.00
2018-04-08T13:30:43.655Z,30.00
2018-04-08T13:33:11.849Z,29.30
2018-04-08T13:35:39.287Z,29.30
2018-04-08T13:38:06.729Z,29.20
2018-04-08T13:40:34.166Z,29.60
2018-04-08T13:43:01.777Z,29.60
2018-04-08T13:45:29.233Z,29.70
2018-04-08T13:47:56.666Z,30.00
2018-04-08T13:50:24.106Z,30.20
2018-04-08T13:52:51.550Z,30.00
2018-04-08T13:55:19.022Z,30.30
2018-04-08T13:57:46.464Z,30.00
2018-04-08T14:00:13.906Z,29.40
2018-04-08T14:02:41.341Z,29.60
2018-04-08T14:05:09.546Z,29.50
2018-04-08T14:07:36.977Z,29.50
2018-04-08T14:10:05.177Z,29.70
2018-04-08T14:12:32.729Z,29.70
2018-04-08T14:15:00.168Z,29.80
2018-04-08T14:17:28.368Z,29.50
2018-04-08T14:19:55.827Z,29.40
2018-04-08T14:22:23.282Z,29.80
2018-04-08T14:24:50.735Z,29.10
2018-04-08T14:27:18.165Z,28.90
2018-04-08T14:29:46.377Z,29.00
2018-04-08T14:32:13.822Z,29.00
2018-04-08T14:34:41.257Z,29.20
2018-04-08T14:37:08.699Z,29.30
2018-04-08T14:39:36.894Z,29.50
2018-04-08T14:42:04.366Z,29.40
2018-04-08T14:44:31.799Z,29.20
2018-04-08T14:46:59.233Z,30.00
2018-04-08T14:49:26.667Z,30.10
2018-04-08T14:51:54.149Z,30.30
2018-04-08T14:54:21.553Z,29.70
2018-04-08T14:56:49.001Z,30.40
2018-04-08T14:59:16.437Z,30.10
2018-04-08T15:01:46.665Z,29.80
2018-04-08T15:04:12.066Z,29.40
2018-04-08T15:06:39.506Z,29.40
2018-04-08T15:09:07.709Z,30.90
2018-04-08T15:11:35.142Z,30.90
2018-04-08T15:14:02.583Z,30.60
2018-04-08T15:16:30.779Z,30.80
2018-04-08T15:18:58.219Z,30.70
2018-04-08T15:21:26.420Z,31.60
2018-04-08T15:23:53.860Z,31.60
2018-04-08T15:26:21.310Z,31.60
2018-04-08T15:28:49.510Z,30.70
2018-04-08T15:31:16.955Z,30.70
2018-04-08T15:33:44.402Z,30.80
2018-04-08T15:36:11.846Z,31.60
2018-04-08T15:38:40.046Z,30.80
2018-04-08T15:41:07.478Z,30.80
2018-04-08T15:43:35.691Z,29.80
2018-04-08T15:46:03.135Z,29.90
2018-04-08T15:48:30.566Z,30.60
2018-04-08T15:50:57.994Z,32.10
2018-04-08T15:53:25.446Z,32.30
2018-04-08T15:55:52.886Z,32.10
2018-04-08T15:58:20.354Z,31.80
2018-04-08T16:00:47.789Z,31.80
2018-04-08T16:03:15.218Z,31.60
2018-04-08T16:05:42.659Z,31.80
2018-04-08T16:08:10.114Z,31.60
2018-04-08T16:10:38.302Z,31.40
2018-04-08T16:13:05.760Z,31.40
2018-04-08T16:15:33.214Z,31.90
2018-04-08T16:18:00.655Z,32.00
2018-04-08T16:20:28.086Z,32.00
2018-04-08T16:22:56.293Z,32.30
2018-04-08T16:25:23.723Z,31.90
2018-04-08T16:27:51.957Z,32.30
2018-04-08T16:30:19.384Z,32.30
2018-04-08T16:32:46.805Z,32.50
2018-04-08T16:35:15.014Z,32.70
2018-04-08T16:37:42.469Z,32.70
2018-04-08T16:40:09.901Z,32.60
2018-04-08T16:42:38.101Z,32.80
2018-04-08T16:45:05.539Z,32.80
2018-04-08T16:47:32.982Z,34.20
2018-04-08T16:50:01.227Z,33.70
2018-04-08T16:52:28.680Z,33.60
2018-04-08T16:54:56.112Z,34.00
2018-04-08T16:57:23.551Z,34.30
2018-04-08T16:59:50.981Z,34.40
2018-04-08T17:02:18.421Z,34.80
2018-04-08T17:04:45.849Z,35.40
2018-04-08T17:07:13.320Z,35.40
2018-04-08T17:09:40.750Z,35.90
2018-04-08T17:12:08.179Z,37.10
2018-04-08T17:14:35.611Z,36.60
2018-04-08T17:17:03.811Z,37.50
2018-04-08T17:19:31.238Z,37.50
2018-04-08T17:21:59.437Z,38.10
2018-04-08T17:24:27.573Z,38.10
2018-04-08T17:26:55.007Z,38.40
2018-04-08T17:29:22.468Z,38.50
2018-04-08T17:31:49.941Z,38.90
2018-04-08T17:34:17.367Z,39.20
2018-04-08T17:36:44.800Z,39.40
2018-04-08T17:39:12.242Z,39.60
2018-04-08T17:41:39.677Z,39.90
2018-04-08T17:44:07.133Z,40.20
2018-04-08T17:46:35.483Z,40.60
2018-04-08T17:49:03.704Z,40.90
2018-04-08T17:51:31.137Z,40.90
2018-04-08T17:53:59.346Z,41.60
2018-04-08T17:56:26.789Z,41.60
2018-04-08T17:58:54.244Z,41.90
2018-04-08T18:01:21.687Z,42.00
2018-04-08T18:03:49.136Z,42.10
2018-04-08T18:06:17.330Z,42.80
2018-04-08T18:08:44.785Z,42.80
2018-04-08T18:11:12.245Z,42.70
2018-04-08T18:13:39.750Z,42.90
2018-04-08T18:16:07.961Z,43.30
2018-04-08T18:18:35.413Z,43.60
2018-04-08T18:21:02.931Z,44.30
2018-04-08T18:23:30.358Z,44.50
2018-04-08T18:25:57.795Z,44.80
2018-04-08T18:28:25.302Z,44.60
2018-04-08T18:30:53.858Z,45.00
2018-04-08T18:33:22.211Z,45.00
2018-04-08T18:35:49.649Z,45.10
2018-04-08T18:38:17.102Z,45.40
2018-04-08T18:40:44.546Z,45.40
2018-04-08T18:43:12.762Z,45.50
2018-04-08T18:45:40.211Z,45.50
2018-04-08T18:48:07.663Z,45.50
2018-04-08T18:50:35.109Z,45.60
2018-04-08T18:53:02.558Z,45.70
2018-04-08T18:55:29.999Z,46.00
2018-04-08T18:57:58.245Z,48.70
2018-04-08T19:00:25.707Z,48.70
2018-04-08T19:02:53.142Z,49.70
2018-04-08T19:05:20.574Z,49.20
2018-04-08T19:07:48.018Z,48.70
2018-04-08T19:10:15.442Z,49.40
2018-04-08T19:12:43.793Z,50.00
2018-04-08T19:15:17.152Z,50.00
2018-04-08T19:17:50.448Z,49.90
2018-04-08T19:20:17.984Z,49.90
2018-04-08T19:22:45.419Z,50.20
2018-04-08T19:25:12.862Z,50.70
2018-04-08T19:27:40.301Z,50.80
2018-04-08T19:30:13.407Z,51.40
2018-04-08T19:32:40.837Z,52.40
2018-04-08T19:35:08.284Z,53.00
2018-04-08T19:37:35.726Z,52.80
2018-04-08T19:40:03.166Z,52.50
2018-04-08T19:42:30.602Z,52.60
2018-04-08T19:44:58.814Z,52.20
2018-04-08T19:47:26.257Z,52.30
2018-04-08T19:49:53.701Z,52.40
2018-04-08T19:52:21.898Z,53.00
2018-04-08T19:54:49.334Z,53.00
2018-04-08T19:57:16.839Z,54.30
2018-04-08T19:59:44.278Z,54.60
2018-04-08T20:02:11.742Z,54.20
2018-04-08T20:04:39.285Z,53.30
2018-04-08T20:07:06.719Z,54.20
2018-04-08T20:09:34.210Z,56.60
2018-04-08T20:12:01.642Z,58.10
2018-04-08T20:14:29.090Z,57.50
2018-04-08T20:16:56.547Z,56.60
2018-04-08T20:19:24.748Z,56.50
2018-04-08T20:21:52.185Z,56.40
2018-04-08T20:24:20.527Z,55.30
2018-04-08T20:26:48.737Z,54.10
2018-04-08T20:29:16.246Z,54.10
2018-04-08T20:31:43.709Z,55.20
2018-04-08T20:34:11.124Z,55.00
2018-04-08T20:36:38.557Z,54.80
2018-04-08T20:39:06.005Z,55.30
2018-04-08T20:41:33.437Z,55.40
2018-04-08T20:44:01.646Z,57.60
2018-04-08T20:46:29.091Z,57.50
2018-04-08T20:48:56.536Z,58.00
2018-04-08T20:51:23.972Z,58.90
2018-04-08T20:53:51.399Z,58.60
2018-04-08T20:56:18.836Z,58.60
2018-04-08T20:58:46.288Z,60.70
2018-04-08T21:01:13.725Z,60.20
2018-04-08T21:03:41.170Z,58.80
2018-04-08T21:06:08.629Z,62.00
2018-04-08T21:08:36.065Z,60.30
2018-04-08T21:11:04.269Z,60.70
2018-04-08T21:13:31.707Z,60.60
2018-04-08T21:15:59.153Z,60.60
2018-04-08T21:18:28.026Z,60.00
2018-04-08T21:20:55.461Z,59.90
2018-04-08T21:23:22.898Z,60.80
2018-04-08T21:25:50.347Z,60.40
2018-04-08T21:28:17.791Z,61.30
2018-04-08T21:30:45.247Z,61.80
2018-04-08T21:33:12.694Z,61.40
2018-04-08T21:35:40.146Z,61.30
2018-04-08T21:38:07.578Z,62.30
2018-04-08T21:40:35.809Z,62.70
2018-04-08T21:43:03.254Z,62.60
2018-04-08T21:45:30.703Z,62.10
2018-04-08T21:47:58.159Z,61.10
2018-04-08T21:50:25.616Z,60.10
2018-04-08T21:52:53.082Z,60.00
2018-04-08T21:55:20.502Z,59.70
2018-04-08T21:57:47.937Z,59.90
2018-04-08T22:00:15.385Z,59.40
2018-04-08T22:02:42.817Z,59.60
2018-04-08T22:05:10.268Z,59.80
2018-04-08T22:07:37.696Z,60.20
2018-04-08T22:10:05.133Z,59.70
2018-04-08T22:12:32.574Z,59.80
2018-04-08T22:15:00.798Z,59.70
2018-04-08T22:17:28.246Z,59.60
2018-04-08T22:19:55.688Z,61.50
2018-04-08T22:22:23.124Z,61.90
2018-04-08T22:24:51.329Z,61.50
2018-04-08T22:27:18.770Z,61.40
2018-04-08T22:29:46.241Z,61.20
2018-04-08T22:32:13.678Z,61.60
2018-04-08T22:34:41.133Z,61.30
2018-04-08T22:37:08.590Z,60.40
2018-04-08T22:39:36.036Z,61.80
2018-04-08T22:42:04.244Z,61.70
2018-04-08T22:44:31.699Z,61.70
2018-04-08T22:46:59.133Z,61.40
2018-04-08T22:49:26.590Z,60.50
2018-04-08T22:51:54.787Z,63.10
2018-04-08T22:54:22.234Z,63.10
2018-04-08T22:56:49.688Z,62.20
2018-04-08T22:59:17.144Z,59.70
2018-04-08T23:01:44.596Z,59.20
2018-04-08T23:04:12.047Z,59.40
2018-04-08T23:06:39.499Z,60.70
2018-04-08T23:09:06.936Z,62.60
2018-04-08T23:11:35.149Z,64.50
2018-04-08T23:14:02.576Z,64.50
2018-04-08T23:16:30.014Z,65.20
2018-04-08T23:18:58.229Z,66.30
2018-04-08T23:21:25.662Z,66.30
2018-04-08T23:23:53.107Z,66.00
2018-04-08T23:26:21.312Z,64.70
2018-04-08T23:28:48.753Z,64.70
2018-04-08T23:31:16.186Z,67.20
2018-04-08T23:33:44.390Z,66.50
2018-04-08T23:36:11.837Z,66.40
2018-04-08T23:38:39.275Z,64.60
2018-04-08T23:41:07.486Z,63.50
2018-04-08T23:43:34.929Z,63.40
2018-04-08T23:46:03.029Z,64.20
2018-04-08T23:48:30.490Z,64.40
2018-04-08T23:50:57.930Z,63.90
2018-04-08T23:53:25.380Z,63.80
2018-04-08T23:55:52.837Z,63.60
2018-04-08T23:58:20.294Z,63.40
